»·PEaware :: N973SE L88-KBFL

N973SE :: L88-KBFL

FLIGHT INFORMATION

Flight Status: Arrived
Operator: Privately registered:
United States
More flights under this callsign
Pilot: Stig E. (4778)
Aircraft: Unknown
(DA62)
More flights by this aircraft type
Origin: L88 New Cuyama
United States
Destination: KBFL Meadows
United States
More flights between these airports :: More routes between these airports
Route: GMN FASTO2
File this flight plan on PilotEdge
Remarks:
Altitude:
(Current/Filed)
9,500ft
Speed:
(Current/Filed)
150kts
Departed: 20-Jun-18 10:59 PM
Arrived: 21-Jun-18 02:31 AM
Distance/Time
Traveled:
43nm/3:32
Distance/Time
To Go:
Arrived

Flight Plot

Page will automatically refresh every two minutes.

Flight plan parsing failed; only flown route is shown


Map Options




Map Legend


Flown Route
Filed Route
Departure Airport
Arrival Airport
Navaid (VOR, NDB)
Fix

Horizontal Profiles

Position Reports

Time Latitude Longitude Heading Altitude Ground
Speed
20-Jun-18 22:52 34.942472 -119.690557 205 2156ft 0kts
20-Jun-18 22:53 34.942472 -119.690557 205 2156ft 0kts
20-Jun-18 22:54 34.942472 -119.690557 205 2156ft 0kts
20-Jun-18 22:55 34.942472 -119.690557 205 2156ft 0kts
20-Jun-18 22:56 34.942472 -119.690557 205 2156ft 0kts
20-Jun-18 22:57 34.942472 -119.690557 205 2156ft 0kts
20-Jun-18 22:59 34.942410 -119.691314 178 2153ft 7kts
20-Jun-18 22:59 34.936607 -119.676116 111 2437ft 94kts
20-Jun-18 23:00 34.931116 -119.641674 102 3650ft 97kts
20-Jun-18 23:01 34.926274 -119.609582 103 4888ft 97kts
20-Jun-18 23:02 34.921319 -119.578003 101 6137ft 94kts
20-Jun-18 23:03 34.916577 -119.547785 101 7273ft 96kts
20-Jun-18 23:04 34.911430 -119.515418 102 8450ft 99kts
20-Jun-18 23:05 34.906113 -119.482266 103 9513ft 111kts
20-Jun-18 23:06 34.898591 -119.436024 101 9535ft 165kts
20-Jun-18 23:07 34.889321 -119.378574 101 9526ft 176kts
20-Jun-18 23:27 34.942472 -119.690557 205 2156ft 0kts
20-Jun-18 23:28 34.942472 -119.690557 205 2156ft 0kts
20-Jun-18 23:29 34.942472 -119.690557 205 2156ft 0kts
20-Jun-18 23:30 34.942472 -119.690557 205 2156ft 0kts
20-Jun-18 23:31 34.942472 -119.690557 205 2156ft 0kts
20-Jun-18 23:32 34.942472 -119.690557 205 2156ft 0kts
20-Jun-18 23:33 34.942472 -119.690557 205 2156ft 0kts
20-Jun-18 23:34 34.942472 -119.690557 205 2156ft 0kts
20-Jun-18 23:35 34.942472 -119.690557 205 2156ft 0kts
20-Jun-18 23:36 34.942472 -119.690557 205 2156ft 0kts
20-Jun-18 23:37 34.942472 -119.690557 205 2156ft 0kts
20-Jun-18 23:38 34.942472 -119.690557 205 2156ft 0kts
20-Jun-18 23:39 34.942472 -119.690557 205 2156ft 0kts
20-Jun-18 23:40 34.942472 -119.690557 205 2156ft 0kts
20-Jun-18 23:41 34.942472 -119.690557 205 2156ft 0kts
20-Jun-18 23:42 34.942472 -119.690557 205 2156ft 0kts
20-Jun-18 23:43 34.942472 -119.690557 205 2156ft 0kts
20-Jun-18 23:44 34.942472 -119.690557 205 2156ft 0kts
20-Jun-18 23:45 34.942472 -119.690557 205 2156ft 0kts
20-Jun-18 23:46 34.942472 -119.690557 205 2156ft 0kts
20-Jun-18 23:47 34.942472 -119.690557 205 2156ft 0kts
20-Jun-18 23:48 34.942465 -119.690561 206 2156ft 0kts
20-Jun-18 23:49 34.937531 -119.679195 119 2309ft 96kts
20-Jun-18 23:50 34.925896 -119.647630 116 3553ft 99kts
20-Jun-18 23:51 34.920434 -119.614808 102 4804ft 100kts
20-Jun-18 23:52 34.916051 -119.583160 102 6021ft 95kts
20-Jun-18 23:53 34.911404 -119.550983 102 7216ft 98kts
20-Jun-18 23:54 34.906511 -119.517951 102 8396ft 101kts
20-Jun-18 23:55 34.901341 -119.483763 102 9482ft 112kts
20-Jun-18 23:56 34.894013 -119.435956 101 9515ft 160kts
20-Jun-18 23:57 34.885683 -119.381344 100 9508ft 166kts
20-Jun-18 23:58 34.877122 -119.326296 101 9504ft 167kts
20-Jun-18 23:59 34.868341 -119.270477 101 9502ft 168kts
21-Jun-18 00:00 34.859621 -119.214586 101 9504ft 168kts
21-Jun-18 00:01 34.850915 -119.158700 101 9505ft 168kts
21-Jun-18 00:02 34.842177 -119.102666 101 9507ft 168kts
21-Jun-18 00:03 34.833463 -119.046928 101 9508ft 168kts
21-Jun-18 00:04 34.824672 -118.990688 101 9542ft 170kts
21-Jun-18 00:05 34.815751 -118.934017 101 9471ft 171kts
21-Jun-18 00:06 34.821499 -118.880021 53 9226ft 170kts
21-Jun-18 00:07 34.858376 -118.855974 352 8993ft 165kts
21-Jun-18 00:08 34.903984 -118.859635 355 8952ft 167kts
21-Jun-18 00:09 34.950460 -118.860966 356 8782ft 167kts
21-Jun-18 00:10 34.976700 -118.861281 356 8486ft 167kts
21-Jun-18 00:11 34.976700 -118.861281 356 8486ft 167kts
21-Jun-18 00:12 34.976700 -118.861281 356 8486ft 167kts
21-Jun-18 00:13 34.976700 -118.861281 356 8486ft 167kts
21-Jun-18 00:14 34.976700 -118.861281 356 8486ft 167kts
21-Jun-18 00:15 34.976700 -118.861281 356 8486ft 167kts
21-Jun-18 00:16 34.976700 -118.861281 356 8486ft 167kts
21-Jun-18 00:17 34.976700 -118.861281 356 8486ft 167kts
21-Jun-18 00:18 34.976700 -118.861281 356 8486ft 167kts
21-Jun-18 00:19 34.976700 -118.861281 356 8486ft 167kts
21-Jun-18 00:20 34.976700 -118.861281 356 8486ft 167kts
21-Jun-18 00:21 34.976700 -118.861281 356 8486ft 167kts
21-Jun-18 00:22 34.976700 -118.861281 356 8486ft 167kts
21-Jun-18 00:23 34.976700 -118.861281 356 8486ft 167kts
21-Jun-18 00:24 34.976700 -118.861281 356 8486ft 167kts
21-Jun-18 00:25 34.976700 -118.861281 356 8486ft 167kts
21-Jun-18 00:26 34.976700 -118.861281 356 8486ft 167kts
21-Jun-18 00:27 34.976700 -118.861281 356 8486ft 167kts
21-Jun-18 00:28 34.976700 -118.861281 356 8486ft 167kts
21-Jun-18 00:29 34.976700 -118.861281 356 8486ft 167kts
21-Jun-18 00:30 34.976700 -118.861281 356 8486ft 167kts
21-Jun-18 00:31 34.976700 -118.861281 356 8486ft 167kts
21-Jun-18 00:32 34.976700 -118.861281 356 8486ft 167kts
21-Jun-18 00:33 34.976700 -118.861281 356 8486ft 167kts
21-Jun-18 00:34 34.976700 -118.861281 356 8486ft 167kts
21-Jun-18 00:35 34.976700 -118.861281 356 8486ft 167kts
21-Jun-18 00:36 34.976700 -118.861281 356 8486ft 167kts
21-Jun-18 00:37 34.976700 -118.861281 356 8486ft 167kts
21-Jun-18 00:38 34.976700 -118.861281 356 8486ft 167kts
21-Jun-18 00:39 34.976700 -118.861281 356 8486ft 167kts
21-Jun-18 00:40 34.976700 -118.861281 356 8486ft 167kts
21-Jun-18 00:41 34.976700 -118.861281 356 8486ft 167kts
21-Jun-18 00:42 34.976700 -118.861281 356 8486ft 167kts
21-Jun-18 00:43 34.976700 -118.861281 356 8486ft 167kts
21-Jun-18 00:44 34.976700 -118.861281 356 8486ft 167kts
21-Jun-18 00:45 34.976700 -118.861281 356 8486ft 167kts
21-Jun-18 00:46 34.976700 -118.861281 356 8486ft 167kts
21-Jun-18 00:47 34.976700 -118.861281 356 8486ft 167kts
21-Jun-18 00:48 34.976700 -118.861281 356 8486ft 167kts
21-Jun-18 00:49 34.976700 -118.861281 356 8486ft 167kts
21-Jun-18 00:50 34.976700 -118.861281 356 8486ft 167kts
21-Jun-18 00:51 34.976700 -118.861281 356 8486ft 167kts
21-Jun-18 00:52 34.976700 -118.861281 356 8486ft 167kts
21-Jun-18 00:53 34.976700 -118.861281 356 8486ft 167kts
21-Jun-18 00:54 34.976700 -118.861281 356 8486ft 167kts
21-Jun-18 00:55 34.976700 -118.861281 356 8486ft 167kts
21-Jun-18 00:56 34.976700 -118.861281 356 8486ft 167kts
21-Jun-18 00:57 34.976700 -118.861281 356 8486ft 167kts
21-Jun-18 00:58 34.976700 -118.861281 356 8486ft 167kts
21-Jun-18 00:59 34.976700 -118.861281 356 8486ft 167kts
21-Jun-18 01:00 34.976700 -118.861281 356 8486ft 167kts
21-Jun-18 01:01 34.976700 -118.861281 356 8486ft 167kts
21-Jun-18 01:02 34.976700 -118.861281 356 8486ft 167kts
21-Jun-18 01:03 34.976700 -118.861281 356 8486ft 167kts
21-Jun-18 01:04 34.976700 -118.861281 356 8486ft 167kts
21-Jun-18 01:05 34.976700 -118.861281 356 8486ft 167kts
21-Jun-18 01:06 34.976700 -118.861281 356 8486ft 167kts
21-Jun-18 01:07 34.976700 -118.861281 356 8486ft 167kts
21-Jun-18 01:08 34.976700 -118.861281 356 8486ft 167kts
21-Jun-18 01:09 34.976700 -118.861281 356 8486ft 167kts
21-Jun-18 01:10 34.976700 -118.861281 356 8486ft 167kts
21-Jun-18 01:11 34.976700 -118.861281 356 8486ft 167kts
21-Jun-18 01:12 34.976700 -118.861281 356 8486ft 167kts
21-Jun-18 01:13 34.976700 -118.861281 356 8486ft 167kts
21-Jun-18 01:14 34.976700 -118.861281 356 8486ft 167kts
21-Jun-18 01:15 34.976700 -118.861281 356 8486ft 167kts
21-Jun-18 01:16 34.976700 -118.861281 356 8486ft 167kts
21-Jun-18 01:17 34.976700 -118.861281 356 8486ft 167kts
21-Jun-18 01:18 34.976700 -118.861281 356 8486ft 167kts
21-Jun-18 01:19 34.976700 -118.861281 356 8486ft 167kts
21-Jun-18 01:20 34.976700 -118.861281 356 8486ft 167kts
21-Jun-18 01:21 34.976700 -118.861281 356 8486ft 167kts
21-Jun-18 01:22 34.976700 -118.861281 356 8486ft 167kts
21-Jun-18 01:23 34.976700 -118.861281 356 8486ft 167kts
21-Jun-18 01:24 34.976700 -118.861281 356 8486ft 167kts
21-Jun-18 01:25 34.976700 -118.861281 356 8486ft 167kts
21-Jun-18 01:26 34.976700 -118.861281 356 8486ft 167kts
21-Jun-18 01:27 34.976700 -118.861281 356 8486ft 167kts
21-Jun-18 01:28 34.976700 -118.861281 356 8486ft 167kts
21-Jun-18 01:29 34.976700 -118.861281 356 8486ft 167kts
21-Jun-18 01:30 34.976700 -118.861281 356 8486ft 167kts
21-Jun-18 01:31 34.976700 -118.861281 356 8486ft 167kts
21-Jun-18 01:32 34.976700 -118.861281 356 8486ft 167kts
21-Jun-18 01:33 34.976700 -118.861281 356 8486ft 167kts
21-Jun-18 01:34 34.976700 -118.861281 356 8486ft 167kts
21-Jun-18 01:35 34.976700 -118.861281 356 8486ft 167kts
21-Jun-18 01:36 34.976700 -118.861281 356 8486ft 167kts
21-Jun-18 01:37 34.976700 -118.861281 356 8486ft 167kts
21-Jun-18 01:38 35.014199 -118.861492 355 8083ft 166kts
21-Jun-18 01:39 35.060137 -118.861599 355 7601ft 164kts
21-Jun-18 01:40 35.105374 -118.861647 355 7132ft 162kts
21-Jun-18 01:41 35.150073 -118.861656 356 6668ft 159kts
21-Jun-18 01:42 35.174010 -118.861658 356 6417ft 158kts
21-Jun-18 01:43 35.174010 -118.861658 356 6417ft 158kts
21-Jun-18 01:44 35.174010 -118.861658 356 6417ft 158kts
21-Jun-18 01:45 35.174010 -118.861658 356 6417ft 158kts
21-Jun-18 01:46 35.174010 -118.861658 356 6417ft 158kts
21-Jun-18 01:47 35.174010 -118.861658 356 6417ft 158kts
21-Jun-18 01:48 35.174010 -118.861658 356 6417ft 158kts
21-Jun-18 01:49 35.174010 -118.861658 356 6417ft 158kts
21-Jun-18 01:50 35.174010 -118.861658 356 6417ft 158kts
21-Jun-18 01:51 35.174010 -118.861658 356 6417ft 158kts
21-Jun-18 01:52 35.174010 -118.861658 356 6417ft 158kts
21-Jun-18 01:53 35.174010 -118.861658 356 6417ft 158kts
21-Jun-18 01:54 35.174010 -118.861658 356 6417ft 158kts
21-Jun-18 01:55 35.174010 -118.861658 356 6417ft 158kts
21-Jun-18 01:56 35.174010 -118.861658 356 6417ft 158kts
21-Jun-18 01:57 35.174010 -118.861658 356 6417ft 158kts
21-Jun-18 01:58 35.174010 -118.861658 356 6417ft 158kts
21-Jun-18 01:59 35.174010 -118.861658 356 6417ft 158kts
21-Jun-18 02:00 35.174010 -118.861658 356 6417ft 158kts
21-Jun-18 02:01 35.174010 -118.861658 356 6417ft 158kts
21-Jun-18 02:02 35.174010 -118.861658 356 6417ft 158kts
21-Jun-18 02:03 35.174010 -118.861658 356 6417ft 158kts
21-Jun-18 02:04 35.174010 -118.861658 356 6417ft 158kts
21-Jun-18 02:05 35.174010 -118.861658 356 6417ft 158kts
21-Jun-18 02:06 35.174010 -118.861658 356 6417ft 158kts
21-Jun-18 02:07 35.174010 -118.861658 356 6417ft 158kts
21-Jun-18 02:08 35.174010 -118.861658 356 6417ft 158kts
21-Jun-18 02:09 35.174010 -118.861658 356 6417ft 158kts
21-Jun-18 02:10 35.174010 -118.861658 356 6417ft 158kts
21-Jun-18 02:11 35.174010 -118.861658 356 6417ft 158kts
21-Jun-18 02:12 35.174010 -118.861658 356 6417ft 158kts
21-Jun-18 02:13 35.174010 -118.861658 356 6417ft 158kts
21-Jun-18 02:14 35.174010 -118.861658 356 6417ft 158kts
21-Jun-18 02:15 35.174010 -118.861658 356 6417ft 158kts
21-Jun-18 02:16 35.174010 -118.861658 356 6417ft 158kts
21-Jun-18 02:17 35.174010 -118.861658 356 6417ft 158kts
21-Jun-18 02:18 35.174010 -118.861658 356 6417ft 158kts
21-Jun-18 02:19 35.174010 -118.861658 356 6417ft 158kts
21-Jun-18 02:20 35.174010 -118.861658 356 6417ft 158kts
21-Jun-18 02:21 35.197097 -118.861659 356 6173ft 157kts
21-Jun-18 02:22 35.240361 -118.861641 357 5608ft 155kts
21-Jun-18 02:23 35.281095 -118.869597 313 4826ft 156kts
21-Jun-18 02:24 35.310983 -118.908105 316 3884ft 151kts
21-Jun-18 02:25 35.338679 -118.941576 317 3070ft 124kts
21-Jun-18 02:26 35.357520 -118.964208 318 2551ft 86kts
21-Jun-18 02:27 35.374781 -118.984965 318 2081ft 88kts
21-Jun-18 02:28 35.392431 -119.006218 318 1600ft 89kts
21-Jun-18 02:29 35.410087 -119.027508 318 1121ft 88kts
21-Jun-18 02:30 35.427398 -119.048568 319 679ft 81kts
21-Jun-18 02:31 35.439236 -119.062488 335 497ft 27kts
21-Jun-18 02:32 35.440300 -119.062604 28 497ft 0kts
21-Jun-18 02:33 35.440369 -119.062552 38 497ft 5kts
21-Jun-18 02:34 35.435656 -119.055965 87 497ft 26kts
21-Jun-18 02:35 35.436766 -119.054893 213 497ft 0kts
21-Jun-18 02:36 35.436766 -119.054893 213 497ft 0kts
21-Jun-18 02:37 35.436766 -119.054893 213 497ft 0kts
21-Jun-18 02:38 35.436766 -119.054893 213 497ft 0kts
21-Jun-18 02:39 35.436766 -119.054893 213 497ft 0kts
21-Jun-18 02:40 35.436766 -119.054893 213 497ft 0kts
21-Jun-18 02:41 35.436766 -119.054893 213 497ft 0kts
21-Jun-18 02:42 35.436766 -119.054893 213 497ft 0kts
21-Jun-18 02:43 35.436766 -119.054893 213 497ft 0kts
21-Jun-18 02:44 35.436766 -119.054893 213 497ft 0kts

Navigation Log

Ident Type
Flight plan parsing failed, navigation log unavailable